• Join FlightAware (Why Join?)
  • Login
  • US Flag 
11:53PM EDT


 

Airport Tracker/Info


-or-


 

Live Flight TrackerFlight Track Log ✈ CEY502 ✈ 07-Jul-2013 ✈ TJSJ / SJU - MDJB / JBQ

Flight Track Log - Related Links

Times and Time Zones

All times are in EDT time to prevent confusion due to time zone crossing. See the CEY502 flight status page for this flight to view local times or setup timezone preferences in your user account.

Time Position Orientation Groundspeed Altitude Reporting Facility
EDT Latitude Longitude Course Direction KTS MPH feet Rate Location/Type
06:53PM 18.4333 -65.9667 317° Northwest 140 161 1,100  Level San Juan Center
06:54PM 18.4667 -66.0000 317° Northwest 180 207 3,100 1,800 Climbing San Juan Center
06:55PM 18.4667 -66.0500 270° West 200 230 4,800 1,800 Climbing San Juan Center
06:56PM 18.4500 -66.1000 251° West 190 219 6,800 1,680 Climbing San Juan Center
06:57PM 18.4500 -66.1667 270° West 200 230 8,300 1,380 Climbing San Juan Center
06:58PM 18.4500 -66.2167 270° West 200 230 9,600 1,260 Climbing San Juan Center
06:59PM 18.4500 -66.2833 270° West 210 242 10,900 1,200 Climbing San Juan Center
07:00PM 18.4667 -66.3333 289° West 210 242 12,100 1,080 Climbing San Juan Center
07:02PM 18.4667 -66.4000 270° West 210 242 13,100 1,020 Climbing San Juan Center
07:03PM 18.4667 -66.4667 270° West 210 242 14,200 1,080 Climbing San Juan Center
07:04PM 18.4667 -66.5333 270° West 210 242 15,300 900 Climbing San Juan Center
07:05PM 18.4833 -66.5833 289° West 210 242 16,100 840 Climbing San Juan Center
07:06PM 18.4833 -66.6500 270° West 210 242 17,100 720 Climbing San Juan Center
07:07PM 18.4833 -66.7000 270° West 220 253 17,600 420 Climbing San Juan Center
07:08PM 18.4833 -66.7667 270° West 240 276 18,000 180 Climbing San Juan Center
07:09PM 18.4833 -66.8500 270° West 250 288 18,000  Level San Juan Center
07:10PM 18.4833 -66.9167 270° West 250 288 18,000  Level San Juan Center
07:11PM 18.4833 -66.9833 270° West 250 288 18,000  Level San Juan Center
07:12PM 18.4833 -67.0667 270° West 240 276 18,000  Level San Juan Center
07:13PM 18.4833 -67.1500 270° West 260 299 18,000  Level San Juan Center
07:15PM 18.5000 -67.3000 277° West 260 299 18,000  Level San Juan Center
07:16PM 18.5000 -67.3667 270° West 260 299 18,000  Level San Juan Center
07:17PM 18.5000 -67.4500 270° West 250 288 18,000  Level San Juan Center
07:18PM 18.5000 -67.5167 270° West 250 288 18,000  Level San Juan Center
07:19PM 18.5000 -67.6000 270° West 250 288 18,000 -60 Level San Juan Center
07:20PM 18.4833 -67.6667 255° West 260 299 17,900 -60 Descending San Juan Center
07:21PM 18.4833 -67.7500 270° West 250 288 17,900  Level San Juan Center
07:22PM 18.4833 -67.8167 270° West 250 288 17,900  Level San Juan Center
07:23PM 18.4833 -67.9000 270° West 250 288 18,000  Climbing San Juan Center
07:24PM 18.4833 -67.9667 270° West 260 299 17,900 -120 Descending San Juan Center
07:26PM 18.4644 -68.0900 268° West  Level FlightAware Approximate
07:33PM 18.4521 -68.5442 268° West  Level FlightAware Approximate
07:34PM 18.4502 -68.6091 268° West  Level FlightAware Approximate
07:35PM 18.4500 -68.6740 270° West  Level FlightAware Approximate
07:36PM 18.4500 -68.7390 270° West  Level FlightAware Approximate
07:37PM 18.4500 -68.8039 270° West  Level FlightAware Approximate
07:38PM 18.4490 -68.8688 267° West  Level FlightAware Approximate
07:39PM 18.4457 -68.9336 267° West  Level FlightAware Approximate
07:40PM 18.4422 -68.9984 267° West  Level FlightAware Approximate
07:41PM 18.4388 -69.0632 267° West  Level FlightAware Approximate
07:42PM 18.4354 -69.1280 267° West  Level FlightAware Approximate
07:43PM 18.4333 -69.1929 270° West  Level FlightAware Approximate
07:44PM 18.4333 -69.2578 270° West  Level FlightAware Approximate
07:45PM 18.4333 -69.3227 270° West  Level FlightAware Approximate
07:46PM 18.4333 -69.3876 270° West  Level FlightAware Approximate
07:47PM 18.4334 -69.4525 270° West  Level FlightAware Approximate
07:48PM 18.4333 -69.5174 270° West  Level FlightAware Approximate
07:49PM 18.4308 -69.5821 260° West  Level FlightAware Approximate
07:50PM 18.4201 -69.6460 260° West  Level FlightAware Approximate
07:51PM 18.4425 -69.7011 308° West  Level FlightAware Approximate
07:52PM 18.4699 -69.7564 298° West  Level FlightAware Approximate
07:53PM 18.4986 -69.8138 298° West  Level FlightAware Approximate
07:54PM 18.5228 -69.8735 293° West  Level FlightAware Approximate
07:55PM 18.5467 -69.9334 293° West  Level FlightAware Approximate
07:56PM 18.5667 -69.9833 293° West  Level FlightAware Approximate
07:57PM 18.5725 -69.9856 293° West  Level Estimated
07:58PM 18.5667 -69.9833 293° West  Level FlightAware Approximate
07:59PM 18.5725 -69.9856 293° West  Level Estimated
08:00PM 18.5667 -69.9833 293° West  Level FlightAware Approximate
08:01PM 18.5725 -69.9856 293° West  Level Estimated
08:02PM 18.5667 -69.9833 293° West  Level FlightAware Approximate
08:03PM 18.5725 -69.9856 293° West  Level Estimated
08:04PM 18.5667 -69.9833 293° West  Level FlightAware Approximate